Aérodrome :
LOGIN :

S'inscrire | Disclaimer

   EN    FR    IT 

 










Légende :    VFR   VFR Marginal   IFR   IFR Intensif   IFR Très Intensif
Visi : 
Plafond : 
>= 8 km
>= 3000ft
5 à 8 km
1000 à 3000 ft
1500m à 5 km
500 à 1000 ft
800 à 1500m
200 à 500 ft
< 800m
< 200 ft
Symboles :   Orages  Brouillard  Fortes neiges  Fortes précipitations  Vent > 20 kt
SIGMETs :   Divers  Orages  Givrage  Turbulence  Onde Orograph.  Cendres Volcan.







- Altitude de l'aérodrome : 821 ft
- Code IATA : LYS
- Voir les cartes d'approche


LFLL - Lyon St Exupéry / Satolas

DERNIER METAR :
  • 192300Z 14010KT CAVOK 15/09 Q1013 NOSIG

METARs EXPIRÉS :
  • 192230Z 13010KT CAVOK 15/08 Q1013 NOSIG
  • 192200Z 13010KT CAVOK 16/08 Q1013 NOSIG
  • 192130Z 13009KT CAVOK 16/07 Q1014 NOSIG
  • 192100Z 13009KT CAVOK 16/07 Q1014 NOSIG
  • 192030Z 13009KT CAVOK 16/06 Q1014 NOSIG

TAF TAF LFLL
Valide du 19 à 18h jusqu'au 21 à 00h UTC


191700Z 1918/2024 18005KT CAVOK
BECMG 2008/2010 18015KT
TEMPO 2012/2024 18015G25KT
Pas de NOTAMs connus pour ce terrain.
1 SIGMET publié pour la FIR Marseille (LFMM) :
 
Orages noyés dans la masse
LFMM SIGMET 16 VALID 192300/200300 LFPW
LFMM MARSEILLE FIR/UIR EMBD TS OBS WI N3900 E00430 - N4200 E00430 - N4200 E00345 - N4345 E00430 - N4200 E00715 - N4045 E00800 - N3900 E00800 - N3900 E00445 TOP FL370 STNR NC=



MET'MAP, la Météo Aéronautique d'un coup d'oeil ! - Copyright ORBIFLY Décembre 2007 - Disclaimer

ORBIFLY MET'MAP TEAM :

Programmation & Développement : Alexandra Zaïnal
Conception & Développement : Baudouin d'Aumeries
Co-Programmation & Développement : Marc-Olivier Méhu
Soutien technique & logistique : Manuel Goepfert

Contact : metmap@orbifly.com




SOURCES & CREDITS :

   NOAA